Time;durP1;ratioP1;P1;durP2;ratioP2;P2;SDS_P1;SDS_P2;PMS_P1;PMS_P2;Temp;Humidity;BMP_temperature;BMP_pressure;BME280_temperature;BME280_humidity;BME280_pressure;Samples;Min_cycle;Max_cycle;Signal;HPM_P1;HPM_P2
2023/07/28 00:00:19;;;;;;;0.20;0.10;;;;;;;;;;5025737;28;20383;-86
2023/07/28 00:02:45;;;;;;;0.22;0.22;;;;;;;;;;5032945;28;20413;-85
2023/07/28 00:05:11;;;;;;;0.20;0.20;;;;;;;;;;5003940;28;20033;-85
2023/07/28 00:07:37;;;;;;;0.20;0.08;;;;;;;;;;5021730;28;20778;-86
2023/07/28 00:10:04;;;;;;;0.20;0.10;;;;;;;;;;5027656;28;20034;-84
2023/07/28 00:12:30;;;;;;;0.20;0.10;;;;;;;;;;5002165;28;20466;-87
2023/07/28 00:14:56;;;;;;;0.20;0.10;;;;;;;;;;5030436;28;20088;-86
2023/07/28 00:17:22;;;;;;;0.20;0.10;;;;;;;;;;5001081;28;20125;-84
2023/07/28 00:19:48;;;;;;;0.20;0.00;;;;;;;;;;5017981;28;20106;-85
2023/07/28 00:22:14;;;;;;;0.20;0.10;;;;;;;;;;5012276;28;20446;-86
2023/07/28 00:24:40;;;;;;;0.38;0.10;;;;;;;;;;5018935;28;20073;-86
2023/07/28 00:27:06;;;;;;;0.20;0.10;;;;;;;;;;5030497;28;20069;-84
2023/07/28 00:29:32;;;;;;;0.20;0.20;;;;;;;;;;5024347;28;20103;-86
2023/07/28 00:31:58;;;;;;;0.28;0.22;;;;;;;;;;5029764;28;20206;-86
2023/07/28 00:34:25;;;;;;;0.20;0.10;;;;;;;;;;5005629;28;20133;-85
2023/07/28 00:36:51;;;;;;;0.30;0.30;;;;;;;;;;5000445;28;20073;-85
2023/07/28 00:39:17;;;;;;;0.30;0.20;;;;;;;;;;5015612;28;20042;-85
2023/07/28 00:41:43;;;;;;;0.20;0.10;;;;;;;;;;5003327;28;20410;-86
2023/07/28 00:44:09;;;;;;;0.20;0.10;;;;;;;;;;5005733;28;20033;-87
2023/07/28 00:46:35;;;;;;;0.20;0.00;;;;;;;;;;5021456;28;20037;-85
2023/07/28 00:49:04;;;;;;;0.20;0.08;;;;;;;;;;5003179;28;20037;-84
2023/07/28 00:51:31;;;;;;;0.20;0.10;;;;;;;;;;5029083;28;20406;-86
2023/07/28 00:54:05;;;;;;;0.20;0.10;;;;;;;;;;4994074;28;20045;-87
2023/07/28 00:56:31;;;;;;;0.20;0.20;;;;;;;;;;5023551;28;20498;-84
2023/07/28 00:58:57;;;;;;;0.30;0.30;;;;;;;;;;5018500;28;20041;-85
2023/07/28 01:01:27;;;;;;;0.20;0.10;;;;;;;;;;5030598;28;20034;-88
2023/07/28 01:03:53;;;;;;;0.20;0.10;;;;;;;;;;5021755;28;20046;-87
2023/07/28 01:06:39;;;;;;;0.20;0.13;;;;;;;;;;5029680;28;20116;-87
2023/07/28 01:09:21;;;;;;;0.32;0.32;;;;;;;;;;5038907;28;20461;-85
2023/07/28 01:11:54;;;;;;;0.40;0.38;;;;;;;;;;5034894;28;20041;-85
2023/07/28 01:14:20;;;;;;;0.20;0.10;;;;;;;;;;5006720;28;20041;-85
2023/07/28 01:16:47;;;;;;;0.20;0.10;;;;;;;;;;5001461;28;20041;-87
2023/07/28 01:19:14;;;;;;;0.25;0.10;;;;;;;;;;5025426;28;20051;-88
2023/07/28 01:21:43;;;;;;;0.20;0.10;;;;;;;;;;5015260;28;20045;-85
2023/07/28 01:24:12;;;;;;;;;;;;;;;;;;5019002;28;20049;-84
2023/07/28 01:26:39;;;;;;;0.20;0.00;;;;;;;;;;5001131;28;20285;-87
2023/07/28 01:29:19;;;;;;;;;;;;;;;;;;;;;
2023/07/28 01:31:47;;;;;;;0.30;0.10;;;;;;;;;;5044114;28;20540;-86
2023/07/28 01:34:22;;;;;;;0.20;0.10;;;;;;;;;;5019637;28;20042;-86
2023/07/28 01:36:53;;;;;;;0.20;0.10;;;;;;;;;;5014287;28;20041;-84
2023/07/28 01:39:28;;;;;;;0.20;0.10;;;;;;;;;;4994655;28;20050;-85
2023/07/28 01:41:58;;;;;;;0.20;0.10;;;;;;;;;;4995109;28;20065;-86
2023/07/28 01:44:26;;;;;;;;;;;;;;;;;;4999318;28;20041;-86
2023/07/28 01:47:08;;;;;;;0.20;0.00;;;;;;;;;;4996277;28;20331;-86
2023/07/28 01:49:34;;;;;;;0.20;0.10;;;;;;;;;;5025256;28;20103;-87
2023/07/28 01:52:21;;;;;;;0.20;0.10;;;;;;;;;;5004954;28;20436;-86
2023/07/28 01:57:52;;;;;;;0.20;0.00;;;;;;;;;;5006399;28;20053;-88
2023/07/28 02:00:23;;;;;;;0.20;0.10;;;;;;;;;;4988723;28;20029;-88
2023/07/28 02:02:52;;;;;;;0.45;0.45;;;;;;;;;;5012987;28;20042;-86
2023/07/28 02:05:24;;;;;;;0.40;0.22;;;;;;;;;;5024189;28;20034;-86
2023/07/28 02:07:50;;;;;;;0.20;0.20;;;;;;;;;;4999033;28;20050;-86
2023/07/28 02:10:16;;;;;;;0.40;0.20;;;;;;;;;;4994723;28;20041;-86
2023/07/28 02:12:48;;;;;;;;;;;;;;;;;;5001952;28;20044;-87
2023/07/28 02:15:14;;;;;;;0.52;0.20;;;;;;;;;;4999804;28;19927;-85
2023/07/28 02:17:40;;;;;;;0.20;0.10;;;;;;;;;;5000415;28;20132;-88
2023/07/28 02:20:10;;;;;;;0.20;0.20;;;;;;;;;;4998632;28;20098;-87
2023/07/28 02:22:36;;;;;;;0.20;0.10;;;;;;;;;;5021668;28;20557;-87
2023/07/28 02:25:11;;;;;;;0.20;0.10;;;;;;;;;;4991192;28;20081;-87
2023/07/28 02:27:41;;;;;;;0.40;0.30;;;;;;;;;;4994081;28;20045;-86
2023/07/28 02:30:10;;;;;;;0.20;0.10;;;;;;;;;;4995385;28;20042;-85
2023/07/28 02:32:41;;;;;;;0.20;0.10;;;;;;;;;;5005842;28;20045;-84
2023/07/28 02:35:08;;;;;;;0.20;0.10;;;;;;;;;;4996007;28;20128;-88
2023/07/28 02:37:36;;;;;;;0.20;0.10;;;;;;;;;;5007922;28;20029;-86
2023/07/28 02:40:03;;;;;;;0.20;0.10;;;;;;;;;;5004243;28;20417;-85
2023/07/28 02:42:36;;;;;;;0.20;0.10;;;;;;;;;;5022179;28;20576;-86
2023/07/28 02:45:05;;;;;;;0.22;0.10;;;;;;;;;;4998069;28;20060;-86
2023/07/28 02:47:31;;;;;;;0.20;0.10;;;;;;;;;;5012458;28;20073;-85
2023/07/28 02:49:57;;;;;;;0.32;0.25;;;;;;;;;;5006465;28;20556;-86
2023/07/28 02:52:24;;;;;;;0.22;0.13;;;;;;;;;;5028443;28;20056;-88
2023/07/28 02:54:52;;;;;;;0.20;0.10;;;;;;;;;;5024707;28;20049;-86
2023/07/28 02:57:21;;;;;;;0.20;0.20;;;;;;;;;;5006949;28;20426;-85
2023/07/28 02:59:47;;;;;;;0.20;0.10;;;;;;;;;;4998306;28;20053;-87
2023/07/28 03:02:19;;;;;;;1.27;0.40;;;;;;;;;;5006896;28;20071;-86
2023/07/28 03:04:47;;;;;;;0.22;0.15;;;;;;;;;;5008566;28;20406;-88
2023/07/28 03:07:14;;;;;;;0.20;0.10;;;;;;;;;;4989788;28;20056;-87
2023/07/28 03:09:40;;;;;;;0.20;0.10;;;;;;;;;;5027594;28;20429;-85
2023/07/28 03:12:06;;;;;;;0.20;0.10;;;;;;;;;;5022226;28;20791;-87
2023/07/28 03:14:32;;;;;;;0.20;0.20;;;;;;;;;;4998586;28;20216;-87
2023/07/28 03:17:11;;;;;;;0.30;0.22;;;;;;;;;;5027482;28;20033;-88
2023/07/28 03:19:37;;;;;;;0.20;0.20;;;;;;;;;;5006543;28;20514;-88
2023/07/28 03:22:04;;;;;;;0.20;0.20;;;;;;;;;;4997396;28;20034;-87
2023/07/28 03:24:35;;;;;;;0.20;0.08;;;;;;;;;;5003823;28;20033;-88
2023/07/28 03:27:02;;;;;;;0.20;0.15;;;;;;;;;;5001445;28;20042;-88
2023/07/28 03:29:28;;;;;;;0.20;0.10;;;;;;;;;;4999838;28;20037;-86
2023/07/28 03:31:54;;;;;;;0.22;0.22;;;;;;;;;;5029365;28;20524;-89
2023/07/28 03:34:20;;;;;;;0.20;0.10;;;;;;;;;;4991726;28;20182;-86
2023/07/28 03:36:46;;;;;;;0.20;0.10;;;;;;;;;;5030216;28;20041;-86
2023/07/28 03:39:16;;;;;;;0.20;0.10;;;;;;;;;;5028764;28;20041;-86
2023/07/28 03:41:42;;;;;;;0.20;0.03;;;;;;;;;;4999746;28;20103;-88
2023/07/28 03:44:08;;;;;;;0.20;0.10;;;;;;;;;;5027759;28;20055;-88
2023/07/28 03:46:52;;;;;;;0.20;0.10;;;;;;;;;;5019114;28;20110;-91
2023/07/28 03:49:19;;;;;;;0.20;0.10;;;;;;;;;;4999272;28;20045;-87
2023/07/28 03:51:45;;;;;;;0.73;0.30;;;;;;;;;;5028905;28;20132;-87
2023/07/28 03:54:14;;;;;;;0.20;0.10;;;;;;;;;;5030371;28;20045;-87
2023/07/28 03:56:40;;;;;;;0.20;0.10;;;;;;;;;;5030836;28;20045;-86
2023/07/28 03:59:09;;;;;;;0.20;0.10;;;;;;;;;;5007306;28;20042;-87
2023/07/28 04:01:35;;;;;;;0.20;0.10;;;;;;;;;;4991899;28;20052;-88
2023/07/28 04:04:04;;;;;;;0.20;0.10;;;;;;;;;;5025861;28;20030;-88
2023/07/28 04:07:02;;;;;;;0.20;0.10;;;;;;;;;;5000430;28;20433;-87
2023/07/28 04:09:31;;;;;;;0.73;0.20;;;;;;;;;;5003616;28;20072;-87
2023/07/28 04:11:57;;;;;;;0.20;0.10;;;;;;;;;;5014326;23;20509;-86
2023/07/28 04:14:29;;;;;;;0.20;0.10;;;;;;;;;;5003039;28;20045;-86
2023/07/28 04:16:55;;;;;;;0.30;0.20;;;;;;;;;;5004785;28;20048;-86
2023/07/28 04:19:21;;;;;;;0.30;0.30;;;;;;;;;;5014262;28;20034;-88
2023/07/28 04:22:00;;;;;;;;;;;;;;;;;;;;;
2023/07/28 04:24:29;;;;;;;0.45;0.28;;;;;;;;;;5024413;28;20532;-87
2023/07/28 04:27:01;;;;;;;0.20;0.10;;;;;;;;;;5013136;28;20402;-87
2023/07/28 04:29:29;;;;;;;0.20;0.10;;;;;;;;;;5009630;28;20512;-89
2023/07/28 04:32:02;;;;;;;0.20;0.10;;;;;;;;;;5030304;28;20503;-87
2023/07/28 04:34:30;;;;;;;;;;;;;;;;;;5026678;28;20048;-88
2023/07/28 04:36:58;;;;;;;0.28;0.08;;;;;;;;;;5012846;28;20000;-88
2023/07/28 04:39:27;;;;;;;0.40;0.35;;;;;;;;;;5027643;28;20037;-85
2023/07/28 04:41:53;;;;;;;0.45;0.43;;;;;;;;;;5029313;28;20045;-86
2023/07/28 04:44:22;;;;;;;0.45;0.40;;;;;;;;;;5030549;28;20041;-87
2023/07/28 04:46:48;;;;;;;0.20;0.10;;;;;;;;;;5013653;28;20052;-87
2023/07/28 04:49:14;;;;;;;0.22;0.10;;;;;;;;;;5011587;28;20041;-87
2023/07/28 04:51:40;;;;;;;0.20;0.10;;;;;;;;;;5008667;28;20034;-87
2023/07/28 04:54:06;;;;;;;0.20;0.10;;;;;;;;;;5006516;28;20460;-88
2023/07/28 04:56:32;;;;;;;0.20;0.10;;;;;;;;;;5005799;28;20030;-87
2023/07/28 04:58:58;;;;;;;0.20;0.10;;;;;;;;;;5012745;28;20041;-84
2023/07/28 05:01:25;;;;;;;0.20;0.20;;;;;;;;;;5024571;28;20132;-86
2023/07/28 05:03:51;;;;;;;0.20;0.10;;;;;;;;;;5025732;28;20051;-85
2023/07/28 05:06:17;;;;;;;0.20;0.10;;;;;;;;;;5008485;28;20437;-87
2023/07/28 05:08:44;;;;;;;0.20;0.10;;;;;;;;;;5008709;28;20042;-86
2023/07/28 05:11:10;;;;;;;0.20;0.20;;;;;;;;;;5007203;28;20236;-87
2023/07/28 05:13:36;;;;;;;0.30;0.20;;;;;;;;;;5024402;28;20081;-85
2023/07/28 05:16:02;;;;;;;0.20;0.20;;;;;;;;;;5023522;28;20045;-88
2023/07/28 05:18:28;;;;;;;0.20;0.10;;;;;;;;;;5020514;28;20037;-87
2023/07/28 05:20:54;;;;;;;0.20;0.17;;;;;;;;;;5013179;28;21776;-85
2023/07/28 05:23:20;;;;;;;0.82;0.20;;;;;;;;;;5011535;28;20191;-85
2023/07/28 05:25:52;;;;;;;0.20;0.20;;;;;;;;;;5029809;28;20081;-87
2023/07/28 05:28:42;;;;;;;0.20;0.10;;;;;;;;;;5016522;28;20079;-86
2023/07/28 05:31:28;;;;;;;0.20;0.10;;;;;;;;;;5025709;28;20045;-86
2023/07/28 05:33:54;;;;;;;0.20;0.10;;;;;;;;;;5016020;28;20042;-88
2023/07/28 05:36:26;;;;;;;0.20;0.10;;;;;;;;;;5022058;28;20571;-86
2023/07/28 05:38:55;;;;;;;0.20;0.10;;;;;;;;;;5018300;28;20045;-87
2023/07/28 05:41:37;;;;;;;0.20;0.10;;;;;;;;;;5011196;28;20053;-86
2023/07/28 05:44:07;;;;;;;0.20;0.03;;;;;;;;;;5028188;28;20395;-87
2023/07/28 05:46:33;;;;;;;1.17;0.95;;;;;;;;;;5002361;28;20433;-87
2023/07/28 05:49:06;;;;;;;0.20;0.10;;;;;;;;;;5026795;28;20048;-87
2023/07/28 05:51:32;;;;;;;0.30;0.30;;;;;;;;;;5054540;22;20071;-83
2023/07/28 05:53:58;;;;;;;0.20;0.10;;;;;;;;;;5034424;28;20037;-80
2023/07/28 05:56:24;;;;;;;0.25;0.20;;;;;;;;;;5034741;28;20036;-84
2023/07/28 05:58:50;;;;;;;0.20;0.10;;;;;;;;;;5033923;28;20489;-83
2023/07/28 06:01:17;;;;;;;0.32;0.10;;;;;;;;;;5033145;28;20039;-81
2023/07/28 06:03:44;;;;;;;1.58;1.02;;;;;;;;;;5051840;28;20280;-83
2023/07/28 06:06:10;;;;;;;0.20;0.10;;;;;;;;;;5033473;28;20072;-83
2023/07/28 06:08:36;;;;;;;0.30;0.10;;;;;;;;;;5028846;28;20036;-82
2023/07/28 06:11:06;;;;;;;0.60;0.45;;;;;;;;;;5034160;28;20071;-84
2023/07/28 06:13:32;;;;;;;0.30;0.20;;;;;;;;;;5029103;28;20462;-82
2023/07/28 06:15:59;;;;;;;0.20;0.13;;;;;;;;;;5030105;28;20041;-82
2023/07/28 06:18:25;;;;;;;0.20;0.10;;;;;;;;;;5032180;28;20067;-84
2023/07/28 06:20:51;;;;;;;0.20;0.20;;;;;;;;;;5034910;28;20038;-82
2023/07/28 06:23:17;;;;;;;0.20;0.10;;;;;;;;;;5031775;28;20630;-82
2023/07/28 06:25:45;;;;;;;0.20;0.13;;;;;;;;;;5044792;28;20428;-83
2023/07/28 06:28:11;;;;;;;0.20;0.00;;;;;;;;;;5025370;28;20044;-82
2023/07/28 06:30:37;;;;;;;0.20;0.10;;;;;;;;;;5033776;28;20032;-84
2023/07/28 06:33:06;;;;;;;0.20;0.10;;;;;;;;;;5031741;28;20048;-83
2023/07/28 06:35:32;;;;;;;0.85;0.55;;;;;;;;;;5034014;28;20032;-82
2023/07/28 06:37:58;;;;;;;0.20;0.10;;;;;;;;;;5031199;28;20036;-84
2023/07/28 06:40:24;;;;;;;0.20;0.10;;;;;;;;;;5034025;28;20032;-82
2023/07/28 06:42:51;;;;;;;0.20;0.10;;;;;;;;;;5029066;28;20513;-85
2023/07/28 06:45:17;;;;;;;0.30;0.20;;;;;;;;;;5026684;28;20044;-84
2023/07/28 06:47:43;;;;;;;0.43;0.30;;;;;;;;;;5045477;28;20044;-83
2023/07/28 06:50:11;;;;;;;0.20;0.15;;;;;;;;;;5029332;28;20135;-86
2023/07/28 06:52:37;;;;;;;0.30;0.20;;;;;;;;;;5030503;28;20143;-83
2023/07/28 06:55:03;;;;;;;0.55;0.43;;;;;;;;;;5033996;28;20074;-84
2023/07/28 06:57:30;;;;;;;0.20;0.00;;;;;;;;;;5030303;28;20040;-85
2023/07/28 06:59:56;;;;;;;0.20;0.10;;;;;;;;;;5025082;28;20036;-83
2023/07/28 07:02:22;;;;;;;0.20;0.10;;;;;;;;;;5044061;28;20037;-87
2023/07/28 07:04:48;;;;;;;0.20;0.10;;;;;;;;;;5033693;28;20040;-84
2023/07/28 07:07:15;;;;;;;0.20;0.10;;;;;;;;;;5023568;28;20341;-83
2023/07/28 07:09:41;;;;;;;0.20;0.10;;;;;;;;;;5032725;28;20043;-83
2023/07/28 07:12:08;;;;;;;0.20;0.13;;;;;;;;;;5036057;28;20547;-83
2023/07/28 07:14:34;;;;;;;0.20;0.20;;;;;;;;;;5022145;28;20046;-84
2023/07/28 07:17:01;;;;;;;0.20;0.10;;;;;;;;;;5021470;28;20064;-83
2023/07/28 07:19:28;;;;;;;0.28;0.25;;;;;;;;;;5027647;28;20085;-81
2023/07/28 07:21:55;;;;;;;0.43;0.43;;;;;;;;;;5034303;28;20045;-84
2023/07/28 07:24:21;;;;;;;0.20;0.10;;;;;;;;;;5032910;28;20036;-84
2023/07/28 07:26:47;;;;;;;0.20;0.10;;;;;;;;;;5027148;28;20044;-83
2023/07/28 07:29:13;;;;;;;0.63;0.15;;;;;;;;;;5024412;28;20569;-84
2023/07/28 07:31:39;;;;;;;0.73;0.30;;;;;;;;;;5027450;28;20044;-82
2023/07/28 07:34:06;;;;;;;0.20;0.10;;;;;;;;;;5028433;28;20040;-85
2023/07/28 07:36:33;;;;;;;0.20;0.20;;;;;;;;;;5025725;28;20036;-83
2023/07/28 07:38:59;;;;;;;0.20;0.10;;;;;;;;;;5025967;28;20054;-81
2023/07/28 07:41:25;;;;;;;0.20;0.10;;;;;;;;;;5033300;28;20032;-83
2023/07/28 07:43:53;;;;;;;0.20;0.13;;;;;;;;;;5033275;28;20102;-82
2023/07/28 07:46:19;;;;;;;0.20;0.10;;;;;;;;;;5043404;28;20044;-82
2023/07/28 07:48:46;;;;;;;0.20;0.10;;;;;;;;;;5050692;28;20679;-84
2023/07/28 07:51:12;;;;;;;0.20;0.20;;;;;;;;;;5046167;28;20048;-85
2023/07/28 07:53:38;;;;;;;0.20;0.10;;;;;;;;;;5047422;28;20048;-86
2023/07/28 07:56:05;;;;;;;0.20;0.10;;;;;;;;;;5033220;28;20094;-82
2023/07/28 07:58:31;;;;;;;0.20;0.00;;;;;;;;;;5050099;28;20063;-83
2023/07/28 08:00:57;;;;;;;0.20;0.20;;;;;;;;;;5025752;28;20040;-85
2023/07/28 08:03:23;;;;;;;0.20;0.10;;;;;;;;;;5026600;28;20115;-84
2023/07/28 08:05:50;;;;;;;0.20;0.10;;;;;;;;;;5025718;28;20110;-85
2023/07/28 08:08:17;;;;;;;0.20;0.10;;;;;;;;;;5024751;28;20037;-87
2023/07/28 08:10:43;;;;;;;0.20;0.10;;;;;;;;;;5030101;28;20509;-84
2023/07/28 08:13:10;;;;;;;3.15;1.35;;;;;;;;;;5027538;28;20037;-84
2023/07/28 08:15:36;;;;;;;0.82;0.40;;;;;;;;;;5030110;28;20037;-83
2023/07/28 08:18:02;;;;;;;1.05;0.95;;;;;;;;;;5027459;28;20040;-85
2023/07/28 08:20:28;;;;;;;0.20;0.10;;;;;;;;;;5025803;28;20044;-85
2023/07/28 08:22:54;;;;;;;0.30;0.20;;;;;;;;;;5031861;28;20449;-84
2023/07/28 08:25:23;;;;;;;0.30;0.30;;;;;;;;;;5048781;28;20068;-83
2023/07/28 08:27:49;;;;;;;0.20;0.10;;;;;;;;;;5036645;28;20504;-85
2023/07/28 08:30:16;;;;;;;0.28;0.22;;;;;;;;;;5052434;28;20037;-84
2023/07/28 08:32:42;;;;;;;0.20;0.00;;;;;;;;;;5022491;28;20501;-82
2023/07/28 08:35:09;;;;;;;0.20;0.17;;;;;;;;;;5025898;28;20045;-85
2023/07/28 08:37:35;;;;;;;0.57;0.47;;;;;;;;;;5043457;28;20055;-84
2023/07/28 08:40:01;;;;;;;0.32;0.32;;;;;;;;;;5047498;28;20036;-84
2023/07/28 08:42:29;;;;;;;0.20;0.03;;;;;;;;;;5025848;28;20040;-83
2023/07/28 08:45:01;;;;;;;0.55;0.22;;;;;;;;;;5028421;28;20123;-85
2023/07/28 08:47:27;;;;;;;0.60;0.28;;;;;;;;;;5053113;28;20115;-84
2023/07/28 08:49:53;;;;;;;0.25;0.10;;;;;;;;;;5048906;28;20136;-83
2023/07/28 08:52:19;;;;;;;0.20;0.13;;;;;;;;;;5032294;28;20123;-83
2023/07/28 08:54:46;;;;;;;0.20;0.10;;;;;;;;;;5028695;28;20116;-84
2023/07/28 08:57:12;;;;;;;0.40;0.20;;;;;;;;;;5029365;28;20037;-86
2023/07/28 08:59:41;;;;;;;0.20;0.17;;;;;;;;;;5049051;28;20033;-87
2023/07/28 09:02:09;;;;;;;0.30;0.20;;;;;;;;;;5032616;28;20040;-83
2023/07/28 09:04:35;;;;;;;0.20;0.10;;;;;;;;;;5036301;28;20489;-85
2023/07/28 09:07:04;;;;;;;0.20;0.13;;;;;;;;;;5025249;28;20281;-86
2023/07/28 09:09:32;;;;;;;0.20;0.10;;;;;;;;;;5031007;28;20040;-86
2023/07/28 09:12:00;;;;;;;0.20;0.20;;;;;;;;;;5026939;28;20496;-87
2023/07/28 09:14:26;;;;;;;0.35;0.30;;;;;;;;;;5042031;28;20052;-83
2023/07/28 09:16:53;;;;;;;0.20;0.10;;;;;;;;;;5025286;28;20032;-84
2023/07/28 09:19:20;;;;;;;0.30;0.17;;;;;;;;;;5029381;28;20050;-85
2023/07/28 09:21:57;;;;;;;0.20;0.20;;;;;;;;;;5031520;28;20036;-85
2023/07/28 09:24:31;;;;;;;0.20;0.15;;;;;;;;;;5026986;28;20048;-83
2023/07/28 09:26:58;;;;;;;0.20;0.03;;;;;;;;;;5048814;28;20051;-83
2023/07/28 09:29:24;;;;;;;0.20;0.00;;;;;;;;;;5030808;28;20041;-89
2023/07/28 09:31:50;;;;;;;0.20;0.13;;;;;;;;;;5030540;28;20044;-84
2023/07/28 09:34:27;;;;;;;0.20;0.10;;;;;;;;;;5029620;28;20041;-84
2023/07/28 09:36:56;;;;;;;0.32;0.32;;;;;;;;;;5030850;28;20032;-85
2023/07/28 09:39:23;;;;;;;0.20;0.20;;;;;;;;;;5035722;28;20040;-88
2023/07/28 09:41:49;;;;;;;0.20;0.10;;;;;;;;;;5043973;28;20040;-85
2023/07/28 09:44:16;;;;;;;0.30;0.30;;;;;;;;;;5036164;28;20091;-85
2023/07/28 09:46:52;;;;;;;0.20;0.15;;;;;;;;;;5048134;28;20528;-86
2023/07/28 09:49:38;;;;;;;0.20;0.10;;;;;;;;;;5033318;28;20068;-82
2023/07/28 09:52:11;;;;;;;0.20;0.20;;;;;;;;;;5055014;28;20037;-85
2023/07/28 09:54:41;;;;;;;0.20;0.03;;;;;;;;;;5031679;28;20412;-85
2023/07/28 09:57:13;;;;;;;0.20;0.10;;;;;;;;;;5021380;28;20029;-83
2023/07/28 09:59:40;;;;;;;0.20;0.17;;;;;;;;;;5034550;28;20082;-84
2023/07/28 10:02:07;;;;;;;0.20;0.10;;;;;;;;;;5046124;28;20044;-83
2023/07/28 10:04:33;;;;;;;0.20;0.10;;;;;;;;;;5051053;28;20074;-83
2023/07/28 10:07:00;;;;;;;0.20;0.10;;;;;;;;;;5030768;28;20053;-84
2023/07/28 10:09:27;;;;;;;0.20;0.20;;;;;;;;;;5025906;28;20040;-82
2023/07/28 10:11:54;;;;;;;0.20;0.10;;;;;;;;;;5046961;28;20041;-83
2023/07/28 10:14:33;;;;;;;0.30;0.20;;;;;;;;;;5031418;28;20044;-84
2023/07/28 10:16:59;;;;;;;0.20;0.10;;;;;;;;;;5039209;28;20076;-84
2023/07/28 10:19:29;;;;;;;0.20;0.00;;;;;;;;;;5031875;28;20497;-83
2023/07/28 10:22:02;;;;;;;0.32;0.30;;;;;;;;;;5026604;28;20029;-84
2023/07/28 10:24:46;;;;;;;0.30;0.25;;;;;;;;;;5024375;28;20171;-85
2023/07/28 10:27:28;;;;;;;0.20;0.10;;;;;;;;;;5041730;28;20184;-85
2023/07/28 10:29:59;;;;;;;0.77;0.63;;;;;;;;;;5043166;28;20105;-86
2023/07/28 10:32:31;;;;;;;0.20;0.10;;;;;;;;;;5052853;28;20090;-84
2023/07/28 10:35:08;;;;;;;0.22;0.13;;;;;;;;;;5051103;28;20421;-83
2023/07/28 10:37:35;;;;;;;0.20;0.20;;;;;;;;;;5029226;28;20091;-84
2023/07/28 10:40:23;;;;;;;0.20;0.13;;;;;;;;;;5022559;28;20166;-84
2023/07/28 10:42:50;;;;;;;0.20;0.10;;;;;;;;;;5023634;28;20044;-82
2023/07/28 10:45:16;;;;;;;0.63;0.35;;;;;;;;;;5044895;28;20040;-85
2023/07/28 10:47:43;;;;;;;0.20;0.20;;;;;;;;;;5032201;28;20072;-81
2023/07/28 10:50:12;;;;;;;0.20;0.10;;;;;;;;;;5026494;28;20051;-85
2023/07/28 10:52:42;;;;;;;0.20;0.10;;;;;;;;;;5034329;28;20036;-83
2023/07/28 10:55:20;;;;;;;0.70;0.20;;;;;;;;;;5042777;28;20421;-84
2023/07/28 10:57:46;;;;;;;0.20;0.10;;;;;;;;;;5029537;28;20037;-83
2023/07/28 11:00:13;;;;;;;0.30;0.25;;;;;;;;;;5028075;28;20047;-87
2023/07/28 11:02:42;;;;;;;0.57;0.45;;;;;;;;;;5033133;28;20047;-85
2023/07/28 11:05:13;;;;;;;0.20;0.10;;;;;;;;;;5033561;28;20074;-84
2023/07/28 11:07:45;;;;;;;0.20;0.10;;;;;;;;;;5026107;28;20032;-83
2023/07/28 11:10:11;;;;;;;;;;;;;;;;;;5045321;28;20048;-85
2023/07/28 11:12:48;;;;;;;0.28;0.20;;;;;;;;;;5023993;28;20353;-86
2023/07/28 11:15:15;;;;;;;0.20;0.10;;;;;;;;;;5038013;28;20044;-84
2023/07/28 11:17:45;;;;;;;0.20;0.20;;;;;;;;;;5033790;28;20479;-85
2023/07/28 11:20:15;;;;;;;0.30;0.10;;;;;;;;;;5045436;28;20037;-87
2023/07/28 11:22:41;;;;;;;0.32;0.25;;;;;;;;;;5036873;28;20086;-86
2023/07/28 11:25:12;;;;;;;0.32;0.20;;;;;;;;;;5024131;28;20040;-86
2023/07/28 11:27:38;;;;;;;0.20;0.10;;;;;;;;;;5025671;28;20037;-84
2023/07/28 11:30:05;;;;;;;0.20;0.10;;;;;;;;;;5032919;28;20036;-85
2023/07/28 11:32:37;;;;;;;0.20;0.20;;;;;;;;;;5025617;28;20037;-84
2023/07/28 11:35:05;;;;;;;0.20;0.17;;;;;;;;;;5029858;28;20032;-85
2023/07/28 11:37:31;;;;;;;0.20;0.13;;;;;;;;;;5026782;28;20056;-83
2023/07/28 11:39:59;;;;;;;0.32;0.22;;;;;;;;;;5044199;28;20095;-85
2023/07/28 11:42:26;;;;;;;0.20;0.10;;;;;;;;;;5034111;28;20461;-85
2023/07/28 11:44:52;;;;;;;2.22;0.73;;;;;;;;;;5026703;28;20166;-83
2023/07/28 11:47:19;;;;;;;0.20;0.20;;;;;;;;;;5027052;28;20059;-82
2023/07/28 11:49:49;;;;;;;0.20;0.15;;;;;;;;;;5024683;28;20354;-85
2023/07/28 11:52:28;;;;;;;5.10;0.60;;;;;;;;;;5018772;23;20042;-84
2023/07/28 11:55:06;;;;;;;0.20;0.20;;;;;;;;;;5001702;28;20474;-85
2023/07/28 11:58:26;;;;;;;0.20;0.10;;;;;;;;;;4974005;28;20038;-88
2023/07/28 12:00:55;;;;;;;0.52;0.20;;;;;;;;;;4915839;29;20103;-85
2023/07/28 12:03:29;;;;;;;0.32;0.32;;;;;;;;;;4909173;29;20039;-82
2023/07/28 12:06:33;;;;;;;;;;;;;;;;;;;;;
2023/07/28 12:09:21;;;;;;;0.50;0.50;;;;;;;;;;4915293;29;20052;-85
2023/07/28 12:12:32;;;;;;;0.30;0.25;;;;;;;;;;4926978;29;20058;-85
2023/07/28 12:15:30;;;;;;;0.20;0.10;;;;;;;;;;4911360;29;20051;-85
2023/07/28 12:18:25;;;;;;;0.20;0.20;;;;;;;;;;4924514;28;20132;-83
2023/07/28 12:20:55;;;;;;;0.50;0.38;;;;;;;;;;4973791;28;20038;-83
2023/07/28 12:23:42;;;;;;;0.20;0.20;;;;;;;;;;5001146;28;20089;-83
2023/07/28 12:26:13;;;;;;;0.50;0.47;;;;;;;;;;4989841;28;20046;-83
2023/07/28 12:28:39;;;;;;;0.20;0.10;;;;;;;;;;4974886;28;20042;-84
2023/07/28 12:31:16;;;;;;;0.20;0.20;;;;;;;;;;4991328;28;20117;-83
2023/07/28 12:33:45;;;;;;;0.43;0.35;;;;;;;;;;4994901;28;20046;-83
2023/07/28 12:36:11;;;;;;;0.22;0.15;;;;;;;;;;4992496;28;20043;-83
2023/07/28 12:38:53;;;;;;;0.20;0.20;;;;;;;;;;4994624;28;20130;-83
2023/07/28 12:41:19;;;;;;;0.20;0.20;;;;;;;;;;4992152;28;20469;-83
2023/07/28 12:43:54;;;;;;;0.25;0.25;;;;;;;;;;4979766;28;20515;-84
2023/07/28 12:46:20;;;;;;;0.20;0.20;;;;;;;;;;4984639;28;20060;-83
2023/07/28 12:48:55;;;;;;;0.25;0.10;;;;;;;;;;4984621;28;20060;-84
2023/07/28 12:51:41;;;;;;;0.35;0.13;;;;;;;;;;4975312;28;20042;-84
2023/07/28 12:54:26;;;;;;;0.38;0.25;;;;;;;;;;4986643;28;20058;-84
2023/07/28 13:00:18;;;;;;;0.20;0.15;;;;;;;;;;4977808;28;20531;-82
2023/07/28 13:02:51;;;;;;;0.47;0.47;;;;;;;;;;4971266;28;20055;-83
2023/07/28 13:05:47;;;;;;;0.20;0.10;;;;;;;;;;4970200;28;20054;-85
2023/07/28 13:08:42;;;;;;;;;;;;;;;;;;;;;
2023/07/28 13:11:31;;;;;;;0.20;0.20;;;;;;;;;;4980306;28;20122;-84
2023/07/28 13:14:00;;;;;;;0.50;0.45;;;;;;;;;;4987868;28;20403;-84
2023/07/28 13:19:34;;;;;;;0.20;0.10;;;;;;;;;;4964677;28;20042;-84
2023/07/28 13:22:26;;;;;;;0.30;0.30;;;;;;;;;;5030700;22;20048;-84
2023/07/28 13:27:52;;;;;;;0.20;0.10;;;;;;;;;;5029000;28;20493;-86
2023/07/28 13:30:27;;;;;;;0.40;0.28;;;;;;;;;;5012460;28;20506;-84
2023/07/28 13:33:18;;;;;;;0.20;0.15;;;;;;;;;;5016205;28;20055;-83
2023/07/28 13:36:11;;;;;;;0.50;0.32;;;;;;;;;;5048436;28;20406;-83
2023/07/28 13:38:43;;;;;;;0.20;0.10;;;;;;;;;;4993051;28;20051;-85
2023/07/28 13:44:35;;;;;;;0.40;0.40;;;;;;;;;;4954386;28;19918;-86
2023/07/28 13:47:25;;;;;;;0.20;0.10;;;;;;;;;;4942636;28;20043;-84
2023/07/28 13:50:03;;;;;;;0.40;0.25;;;;;;;;;;4938619;28;20542;-84
2023/07/28 13:52:49;;;;;;;0.40;0.38;;;;;;;;;;4957650;28;20144;-84
2023/07/28 13:58:44;;;;;;;0.20;0.10;;;;;;;;;;4991259;28;20045;-83
2023/07/28 14:01:10;;;;;;;0.20;0.10;;;;;;;;;;5030174;28;20052;-83
2023/07/28 14:03:54;;;;;;;0.20;0.10;;;;;;;;;;5033673;28;20088;-86
2023/07/28 14:06:50;;;;;;;0.20;0.10;;;;;;;;;;5030100;28;20320;-84
2023/07/28 14:10:05;;;;;;;0.30;0.30;;;;;;;;;;4984565;28;20039;-83
2023/07/28 14:15:55;;;;;;;0.20;0.20;;;;;;;;;;5023570;28;20045;-84
2023/07/28 14:18:44;;;;;;;0.20;0.10;;;;;;;;;;5025515;28;20036;-83
2023/07/28 14:21:16;;;;;;;0.30;0.30;;;;;;;;;;5048746;28;20123;-83
2023/07/28 14:23:52;;;;;;;0.30;0.20;;;;;;;;;;5029011;28;20546;-83
2023/07/28 14:26:36;;;;;;;0.20;0.17;;;;;;;;;;5026938;28;20036;-83
2023/07/28 14:32:53;;;;;;;0.30;0.30;;;;;;;;;;5022141;28;20041;-82
2023/07/28 14:35:46;;;;;;;0.35;0.35;;;;;;;;;;5016614;28;20037;-86
2023/07/28 14:38:40;;;;;;;0.43;0.20;;;;;;;;;;5021161;28;20045;-84
2023/07/28 14:41:06;;;;;;;0.20;0.20;;;;;;;;;;5009010;28;20049;-84
2023/07/28 14:43:38;;;;;;;0.47;0.47;;;;;;;;;;5017256;28;20036;-85
2023/07/28 14:46:06;;;;;;;0.20;0.20;;;;;;;;;;5039332;28;20067;-84
2023/07/28 14:48:40;;;;;;;0.20;0.10;;;;;;;;;;5015877;28;20041;-84
2023/07/28 14:57:50;;;;;;;0.20;0.20;;;;;;;;;;4937024;28;20048;-85
2023/07/28 15:00:42;;;;;;;0.20;0.10;;;;;;;;;;5015230;28;20021;-85
2023/07/28 15:06:39;;;;;;;0.20;0.20;;;;;;;;;;4950246;28;20073;-84
2023/07/28 15:09:18;;;;;;;0.20;0.10;;;;;;;;;;4943721;28;20101;-85
2023/07/28 15:12:08;;;;;;;0.20;0.20;;;;;;;;;;4929956;29;20043;-83
2023/07/28 15:14:52;;;;;;;0.22;0.05;;;;;;;;;;4936159;28;20039;-83
2023/07/28 15:17:32;;;;;;;0.30;0.30;;;;;;;;;;4993094;28;20072;-84
2023/07/28 15:23:24;;;;;;;0.20;0.15;;;;;;;;;;5044145;22;20049;-83
2023/07/28 15:25:59;;;;;;;0.57;0.25;;;;;;;;;;5009717;28;20046;-81
2023/07/28 15:29:00;;;;;;;1.00;0.77;;;;;;;;;;4995295;28;20100;-86
2023/07/28 15:32:07;;;;;;;0.20;0.20;;;;;;;;;;5011845;28;20037;-85
2023/07/28 15:35:24;;;;;;;0.20;0.10;;;;;;;;;;4950077;28;20050;-83
2023/07/28 15:37:53;;;;;;;0.30;0.25;;;;;;;;;;5002129;28;20087;-86
2023/07/28 15:40:44;;;;;;;;;;;;;;;;;;;;;
2023/07/28 15:43:46;;;;;;;;;;;;;;;;;;;;;
2023/07/28 15:46:25;;;;;;;0.20;0.10;;;;;;;;;;5003242;28;20042;-84
2023/07/28 15:49:38;;;;;;;0.43;0.43;;;;;;;;;;5012393;28;20048;-85
2023/07/28 15:52:14;;;;;;;1.45;0.90;;;;;;;;;;4998582;28;20041;-84
2023/07/28 15:54:48;;;;;;;0.70;0.50;;;;;;;;;;5004037;28;20352;-83